Tomkins Cove, New York
Current Conditions -  °F | °C
As of 4:45 PM on Saturday 25 Oct 2014 (Local Time) from KSWF Reporting Station
Clear Clear  
Wind Chill: 63°   Ceiling: Unl
Heat Index: 63°   Visibility: 20mi
Dew Point: 45°   Wind: 14mph
Humidity: 52%   Direction: 280°W
Pressure: 29.65"   Gusts: 23mph
Location:  41.26°N, 73.98°W
Report Text: KSWF 252045Z 28012G20KT 20SM SKC 17/07 A2965
Loading
Personal Weather Stations






























Interactive Weather Map
Tropical Storm Tracking
New forecast layout! Learn more

10-Day Weather Forecast

Advertisements
Track Severe Weather on mobile